sensor_id;sensor_type;location;lat;lon;timestamp;pressure;altitude;pressure_sealevel;temperature;humidity
41222;BME280;26952;42.884;23.918;2022-12-16T00:01:18;95535.88;;;6.24;100.00
41222;BME280;26952;42.884;23.918;2022-12-16T00:03:49;95547.63;;;6.37;100.00
41222;BME280;26952;42.884;23.918;2022-12-16T00:06:15;95543.75;;;6.49;100.00
41222;BME280;26952;42.884;23.918;2022-12-16T00:08:40;95534.94;;;6.33;100.00
41222;BME280;26952;42.884;23.918;2022-12-16T00:11:06;95542.34;;;6.37;100.00
41222;BME280;26952;42.884;23.918;2022-12-16T00:13:33;95536.78;;;6.40;100.00
41222;BME280;26952;42.884;23.918;2022-12-16T00:16:03;95533.81;;;6.35;100.00
41222;BME280;26952;42.884;23.918;2022-12-16T00:18:30;95536.28;;;6.37;100.00
41222;BME280;26952;42.884;23.918;2022-12-16T00:20:55;95549.75;;;6.59;100.00
41222;BME280;26952;42.884;23.918;2022-12-16T00:23:21;95549.16;;;6.73;100.00
41222;BME280;26952;42.884;23.918;2022-12-16T00:25:47;95564.06;;;6.65;100.00
41222;BME280;26952;42.884;23.918;2022-12-16T00:28:13;95552.94;;;6.71;100.00
41222;BME280;26952;42.884;23.918;2022-12-16T00:30:41;95551.38;;;6.60;100.00
41222;BME280;26952;42.884;23.918;2022-12-16T00:33:06;95552.88;;;6.63;100.00
41222;BME280;26952;42.884;23.918;2022-12-16T00:35:32;95522.72;;;6.49;100.00
41222;BME280;26952;42.884;23.918;2022-12-16T00:37:57;95517.44;;;6.41;100.00
41222;BME280;26952;42.884;23.918;2022-12-16T00:40:23;95524.56;;;6.57;100.00
41222;BME280;26952;42.884;23.918;2022-12-16T00:42:49;95517.22;;;6.09;100.00
41222;BME280;26952;42.884;23.918;2022-12-16T00:45:15;95523.09;;;6.29;100.00
41222;BME280;26952;42.884;23.918;2022-12-16T00:47:40;95527.94;;;6.41;100.00
41222;BME280;26952;42.884;23.918;2022-12-16T00:50:06;95513.22;;;6.48;100.00
41222;BME280;26952;42.884;23.918;2022-12-16T00:52:32;95526.63;;;6.45;100.00
41222;BME280;26952;42.884;23.918;2022-12-16T00:54:57;95506.03;;;6.66;100.00
41222;BME280;26952;42.884;23.918;2022-12-16T00:57:22;95501.50;;;6.76;100.00
41222;BME280;26952;42.884;23.918;2022-12-16T00:59:48;95515.00;;;6.81;100.00
41222;BME280;26952;42.884;23.918;2022-12-16T01:02:13;95498.75;;;6.94;100.00
41222;BME280;26952;42.884;23.918;2022-12-16T01:04:38;95507.97;;;6.90;100.00
41222;BME280;26952;42.884;23.918;2022-12-16T01:07:04;95481.72;;;6.64;100.00
41222;BME280;26952;42.884;23.918;2022-12-16T01:09:29;95505.88;;;6.68;100.00
41222;BME280;26952;42.884;23.918;2022-12-16T01:11:55;95523.53;;;6.75;100.00
41222;BME280;26952;42.884;23.918;2022-12-16T01:14:20;95489.75;;;6.96;100.00
41222;BME280;26952;42.884;23.918;2022-12-16T01:16:45;95481.59;;;6.74;100.00
41222;BME280;26952;42.884;23.918;2022-12-16T01:19:11;95492.97;;;6.82;100.00
41222;BME280;26952;42.884;23.918;2022-12-16T01:21:37;95471.47;;;6.87;100.00
41222;BME280;26952;42.884;23.918;2022-12-16T01:24:03;95464.56;;;6.94;100.00
41222;BME280;26952;42.884;23.918;2022-12-16T01:26:29;95461.16;;;7.01;100.00
41222;BME280;26952;42.884;23.918;2022-12-16T01:28:56;95440.88;;;6.94;100.00
41222;BME280;26952;42.884;23.918;2022-12-16T01:31:21;95469.56;;;7.05;100.00
41222;BME280;26952;42.884;23.918;2022-12-16T01:33:47;95461.50;;;7.15;100.00
41222;BME280;26952;42.884;23.918;2022-12-16T01:36:12;95456.50;;;6.95;100.00
41222;BME280;26952;42.884;23.918;2022-12-16T01:38:40;95465.41;;;6.94;100.00
41222;BME280;26952;42.884;23.918;2022-12-16T01:41:06;95454.06;;;7.02;100.00
41222;BME280;26952;42.884;23.918;2022-12-16T01:43:33;95476.94;;;7.01;100.00
41222;BME280;26952;42.884;23.918;2022-12-16T01:48:58;95478.94;;;7.16;100.00
41222;BME280;26952;42.884;23.918;2022-12-16T01:51:43;95467.41;;;7.17;100.00
41222;BME280;26952;42.884;23.918;2022-12-16T01:54:14;95465.41;;;7.02;100.00
41222;BME280;26952;42.884;23.918;2022-12-16T01:56:43;95459.50;;;7.08;100.00
41222;BME280;26952;42.884;23.918;2022-12-16T01:59:12;95450.00;;;7.24;100.00
41222;BME280;26952;42.884;23.918;2022-12-16T02:01:40;95451.31;;;7.12;100.00
41222;BME280;26952;42.884;23.918;2022-12-16T02:04:05;95457.38;;;7.12;100.00
41222;BME280;26952;42.884;23.918;2022-12-16T02:06:31;95447.69;;;7.21;100.00
41222;BME280;26952;42.884;23.918;2022-12-16T02:08:59;95446.53;;;7.23;100.00
41222;BME280;26952;42.884;23.918;2022-12-16T02:11:43;95454.28;;;7.25;100.00
41222;BME280;26952;42.884;23.918;2022-12-16T02:14:41;95462.84;;;7.27;100.00
41222;BME280;26952;42.884;23.918;2022-12-16T02:17:27;95462.38;;;7.39;100.00
41222;BME280;26952;42.884;23.918;2022-12-16T02:31:15;95433.06;;;7.18;100.00
41222;BME280;26952;42.884;23.918;2022-12-16T02:39:13;95427.66;;;7.20;100.00
41222;BME280;26952;42.884;23.918;2022-12-16T02:42:12;95419.09;;;7.26;100.00
41222;BME280;26952;42.884;23.918;2022-12-16T02:47:12;95426.34;;;7.48;100.00
41222;BME280;26952;42.884;23.918;2022-12-16T02:49:45;95428.97;;;7.48;100.00
41222;BME280;26952;42.884;23.918;2022-12-16T02:52:12;95424.69;;;7.47;100.00
41222;BME280;26952;42.884;23.918;2022-12-16T02:54:38;95428.31;;;7.46;100.00
41222;BME280;26952;42.884;23.918;2022-12-16T03:00:09;95434.41;;;7.54;100.00
41222;BME280;26952;42.884;23.918;2022-12-16T03:07:46;95442.63;;;7.43;100.00
41222;BME280;26952;42.884;23.918;2022-12-16T03:10:16;95445.44;;;7.42;100.00
41222;BME280;26952;42.884;23.918;2022-12-16T03:12:44;95461.88;;;7.36;100.00
41222;BME280;26952;42.884;23.918;2022-12-16T03:15:12;95475.03;;;7.36;100.00
41222;BME280;26952;42.884;23.918;2022-12-16T03:17:40;95485.25;;;7.47;100.00
41222;BME280;26952;42.884;23.918;2022-12-16T03:20:10;95487.22;;;7.45;100.00
41222;BME280;26952;42.884;23.918;2022-12-16T03:22:39;95515.25;;;7.62;100.00
41222;BME280;26952;42.884;23.918;2022-12-16T03:25:08;95507.00;;;7.57;100.00
41222;BME280;26952;42.884;23.918;2022-12-16T03:27:40;95525.91;;;7.52;100.00
41222;BME280;26952;42.884;23.918;2022-12-16T03:30:35;95527.34;;;7.31;100.00
41222;BME280;26952;42.884;23.918;2022-12-16T03:33:04;95500.50;;;7.19;100.00
41222;BME280;26952;42.884;23.918;2022-12-16T03:35:36;95502.31;;;7.27;100.00
41222;BME280;26952;42.884;23.918;2022-12-16T03:38:04;95479.59;;;7.18;100.00
41222;BME280;26952;42.884;23.918;2022-12-16T03:40:31;95482.44;;;7.32;100.00
41222;BME280;26952;42.884;23.918;2022-12-16T03:42:58;95466.81;;;7.31;100.00
41222;BME280;26952;42.884;23.918;2022-12-16T03:45:30;95446.25;;;7.26;100.00
41222;BME280;26952;42.884;23.918;2022-12-16T03:47:57;95460.06;;;7.36;100.00
41222;BME280;26952;42.884;23.918;2022-12-16T03:50:34;95458.25;;;7.37;100.00
41222;BME280;26952;42.884;23.918;2022-12-16T03:53:00;95451.03;;;7.39;100.00
41222;BME280;26952;42.884;23.918;2022-12-16T03:55:25;95441.25;;;7.15;100.00
41222;BME280;26952;42.884;23.918;2022-12-16T03:57:51;95461.03;;;7.19;100.00
41222;BME280;26952;42.884;23.918;2022-12-16T04:00:16;95454.56;;;7.05;100.00
41222;BME280;26952;42.884;23.918;2022-12-16T04:02:42;95483.69;;;7.12;100.00
41222;BME280;26952;42.884;23.918;2022-12-16T04:05:08;95480.28;;;7.28;100.00
41222;BME280;26952;42.884;23.918;2022-12-16T04:07:33;95481.59;;;7.32;100.00
41222;BME280;26952;42.884;23.918;2022-12-16T04:09:59;95491.81;;;7.35;100.00
41222;BME280;26952;42.884;23.918;2022-12-16T04:12:24;95486.53;;;7.35;100.00
41222;BME280;26952;42.884;23.918;2022-12-16T04:15:08;95496.75;;;7.38;100.00
41222;BME280;26952;42.884;23.918;2022-12-16T04:17:52;95483.38;;;7.15;100.00
41222;BME280;26952;42.884;23.918;2022-12-16T04:20:39;95480.59;;;7.25;100.00
41222;BME280;26952;42.884;23.918;2022-12-16T04:23:46;95488.34;;;7.26;100.00
41222;BME280;26952;42.884;23.918;2022-12-16T04:26:31;95504.19;;;7.42;100.00
41222;BME280;26952;42.884;23.918;2022-12-16T04:29:16;95496.09;;;7.36;100.00
41222;BME280;26952;42.884;23.918;2022-12-16T04:31:41;95512.53;;;7.38;100.00
41222;BME280;26952;42.884;23.918;2022-12-16T04:34:07;95493.81;;;7.33;100.00
41222;BME280;26952;42.884;23.918;2022-12-16T04:37:01;95489.69;;;7.46;100.00
41222;BME280;26952;42.884;23.918;2022-12-16T04:39:45;95474.72;;;7.47;100.00
41222;BME280;26952;42.884;23.918;2022-12-16T04:42:29;95481.47;;;7.49;100.00
41222;BME280;26952;42.884;23.918;2022-12-16T04:45:13;95458.94;;;7.47;100.00
41222;BME280;26952;42.884;23.918;2022-12-16T04:47:57;95427.00;;;7.34;100.00
41222;BME280;26952;42.884;23.918;2022-12-16T04:50:41;95446.44;;;7.49;100.00
41222;BME280;26952;42.884;23.918;2022-12-16T04:53:26;95458.25;;;7.53;100.00
41222;BME280;26952;42.884;23.918;2022-12-16T04:56:10;95455.59;;;7.29;100.00
41222;BME280;26952;42.884;23.918;2022-12-16T04:58:54;95479.63;;;7.34;100.00
41222;BME280;26952;42.884;23.918;2022-12-16T05:01:38;95465.44;;;7.11;100.00
41222;BME280;26952;42.884;23.918;2022-12-16T05:04:22;95477.13;;;7.16;100.00
41222;BME280;26952;42.884;23.918;2022-12-16T05:07:05;95495.53;;;7.08;100.00
41222;BME280;26952;42.884;23.918;2022-12-16T05:09:49;95502.63;;;7.16;100.00
41222;BME280;26952;42.884;23.918;2022-12-16T05:12:34;95497.00;;;7.02;100.00
41222;BME280;26952;42.884;23.918;2022-12-16T05:15:18;95503.94;;;7.12;100.00
41222;BME280;26952;42.884;23.918;2022-12-16T05:18:13;95492.72;;;7.01;100.00
41222;BME280;26952;42.884;23.918;2022-12-16T05:20:59;95499.66;;;7.11;100.00
41222;BME280;26952;42.884;23.918;2022-12-16T05:23:43;95488.63;;;7.07;100.00
41222;BME280;26952;42.884;23.918;2022-12-16T05:26:27;95468.22;;;7.01;100.00
41222;BME280;26952;42.884;23.918;2022-12-16T05:29:11;95475.47;;;7.15;100.00
41222;BME280;26952;42.884;23.918;2022-12-16T05:31:56;95482.75;;;7.29;100.00
41222;BME280;26952;42.884;23.918;2022-12-16T05:34:39;95493.13;;;7.31;100.00
41222;BME280;26952;42.884;23.918;2022-12-16T05:37:24;95485.16;;;6.98;100.00
41222;BME280;26952;42.884;23.918;2022-12-16T05:40:09;95513.50;;;7.21;100.00
41222;BME280;26952;42.884;23.918;2022-12-16T05:42:57;95527.81;;;7.18;100.00
41222;BME280;26952;42.884;23.918;2022-12-16T05:45:41;95534.19;;;7.07;100.00
41222;BME280;26952;42.884;23.918;2022-12-16T05:48:25;95562.09;;;7.00;100.00
41222;BME280;26952;42.884;23.918;2022-12-16T05:51:09;95552.00;;;6.88;100.00
41222;BME280;26952;42.884;23.918;2022-12-16T05:53:53;95568.00;;;6.94;100.00
41222;BME280;26952;42.884;23.918;2022-12-16T05:56:37;95571.63;;;6.93;100.00
41222;BME280;26952;42.884;23.918;2022-12-16T05:59:21;95591.53;;;6.96;100.00
41222;BME280;26952;42.884;23.918;2022-12-16T06:02:05;95588.41;;;7.00;100.00
41222;BME280;26952;42.884;23.918;2022-12-16T06:04:49;95608.50;;;7.01;100.00
41222;BME280;26952;42.884;23.918;2022-12-16T06:07:33;95613.91;;;7.00;100.00
41222;BME280;26952;42.884;23.918;2022-12-16T06:10:17;95604.38;;;7.07;100.00
41222;BME280;26952;42.884;23.918;2022-12-16T06:13:01;95604.28;;;7.17;100.00
41222;BME280;26952;42.884;23.918;2022-12-16T06:15:45;95589.50;;;7.24;100.00
41222;BME280;26952;42.884;23.918;2022-12-16T06:18:29;95606.91;;;7.17;100.00
41222;BME280;26952;42.884;23.918;2022-12-16T06:21:13;95603.34;;;7.26;100.00
41222;BME280;26952;42.884;23.918;2022-12-16T06:23:57;95613.53;;;7.29;100.00
41222;BME280;26952;42.884;23.918;2022-12-16T06:26:41;95624.47;;;7.42;100.00
41222;BME280;26952;42.884;23.918;2022-12-16T06:29:25;95622.50;;;7.44;100.00
41222;BME280;26952;42.884;23.918;2022-12-16T06:32:09;95631.75;;;7.56;100.00
41222;BME280;26952;42.884;23.918;2022-12-16T06:34:53;95624.00;;;7.54;100.00
41222;BME280;26952;42.884;23.918;2022-12-16T06:37:37;95639.03;;;7.62;100.00
41222;BME280;26952;42.884;23.918;2022-12-16T06:40:20;95606.97;;;7.82;100.00
41222;BME280;26952;42.884;23.918;2022-12-16T06:43:04;95611.59;;;7.88;100.00
41222;BME280;26952;42.884;23.918;2022-12-16T06:45:48;95627.06;;;7.91;100.00
41222;BME280;26952;42.884;23.918;2022-12-16T06:48:32;95616.38;;;8.09;100.00
41222;BME280;26952;42.884;23.918;2022-12-16T06:51:16;95624.25;;;7.85;100.00
41222;BME280;26952;42.884;23.918;2022-12-16T06:54:00;95622.97;;;7.89;100.00
41222;BME280;26952;42.884;23.918;2022-12-16T06:56:44;95616.06;;;7.96;100.00
41222;BME280;26952;42.884;23.918;2022-12-16T06:59:28;95617.19;;;8.01;100.00
41222;BME280;26952;42.884;23.918;2022-12-16T07:02:12;95609.13;;;8.11;100.00
41222;BME280;26952;42.884;23.918;2022-12-16T07:04:56;95613.13;;;8.15;100.00
41222;BME280;26952;42.884;23.918;2022-12-16T07:07:50;95590.22;;;8.23;100.00
41222;BME280;26952;42.884;23.918;2022-12-16T07:10:35;95606.72;;;8.33;100.00
41222;BME280;26952;42.884;23.918;2022-12-16T07:13:19;95595.69;;;8.54;100.00
41222;BME280;26952;42.884;23.918;2022-12-16T07:16:03;95599.94;;;8.63;100.00
41222;BME280;26952;42.884;23.918;2022-12-16T07:18:47;95609.97;;;8.84;100.00
41222;BME280;26952;42.884;23.918;2022-12-16T07:21:39;95598.09;;;8.80;100.00
41222;BME280;26952;42.884;23.918;2022-12-16T07:24:22;95605.81;;;8.97;100.00
41222;BME280;26952;42.884;23.918;2022-12-16T07:27:06;95605.47;;;9.00;100.00
41222;BME280;26952;42.884;23.918;2022-12-16T07:29:50;95601.47;;;9.20;100.00
41222;BME280;26952;42.884;23.918;2022-12-16T07:32:34;95598.84;;;9.12;100.00
41222;BME280;26952;42.884;23.918;2022-12-16T07:35:18;95607.66;;;9.35;100.00
41222;BME280;26952;42.884;23.918;2022-12-16T07:38:02;95596.25;;;9.43;100.00
41222;BME280;26952;42.884;23.918;2022-12-16T07:40:47;95603.97;;;9.52;100.00
41222;BME280;26952;42.884;23.918;2022-12-16T07:43:31;95596.00;;;9.60;100.00
41222;BME280;26952;42.884;23.918;2022-12-16T07:46:15;95583.72;;;9.75;100.00
41222;BME280;26952;42.884;23.918;2022-12-16T07:48:59;95601.69;;;9.49;100.00
41222;BME280;26952;42.884;23.918;2022-12-16T07:51:43;95607.03;;;9.72;100.00
41222;BME280;26952;42.884;23.918;2022-12-16T07:54:27;95624.78;;;9.86;100.00
41222;BME280;26952;42.884;23.918;2022-12-16T07:57:11;95612.00;;;9.98;100.00
41222;BME280;26952;42.884;23.918;2022-12-16T07:59:55;95615.47;;;9.98;100.00
41222;BME280;26952;42.884;23.918;2022-12-16T08:02:39;95560.53;;;9.86;100.00
41222;BME280;26952;42.884;23.918;2022-12-16T08:05:23;95619.56;;;10.01;100.00
41222;BME280;26952;42.884;23.918;2022-12-16T08:08:06;95562.41;;;9.77;100.00
41222;BME280;26952;42.884;23.918;2022-12-16T08:10:50;95579.22;;;10.07;100.00
41222;BME280;26952;42.884;23.918;2022-12-16T08:13:34;95621.53;;;10.07;100.00
41222;BME280;26952;42.884;23.918;2022-12-16T08:16:18;95607.53;;;9.98;100.00
41222;BME280;26952;42.884;23.918;2022-12-16T08:19:03;95611.75;;;9.84;100.00
41222;BME280;26952;42.884;23.918;2022-12-16T08:21:47;95593.66;;;9.96;100.00
41222;BME280;26952;42.884;23.918;2022-12-16T08:24:31;95591.53;;;9.92;100.00
41222;BME280;26952;42.884;23.918;2022-12-16T08:27:15;95595.00;;;9.92;100.00
41222;BME280;26952;42.884;23.918;2022-12-16T08:29:58;95598.47;;;9.93;100.00
41222;BME280;26952;42.884;23.918;2022-12-16T08:32:42;95606.63;;;10.14;100.00
41222;BME280;26952;42.884;23.918;2022-12-16T08:35:26;95583.84;;;10.13;100.00
41222;BME280;26952;42.884;23.918;2022-12-16T08:38:10;95578.00;;;10.40;100.00
41222;BME280;26952;42.884;23.918;2022-12-16T08:40:54;95579.38;;;10.73;100.00
41222;BME280;26952;42.884;23.918;2022-12-16T08:43:38;95574.28;;;11.15;100.00
41222;BME280;26952;42.884;23.918;2022-12-16T08:46:22;95590.88;;;11.53;100.00
41222;BME280;26952;42.884;23.918;2022-12-16T08:49:06;95547.22;;;11.63;100.00
41222;BME280;26952;42.884;23.918;2022-12-16T08:51:50;95555.75;;;11.80;100.00
41222;BME280;26952;42.884;23.918;2022-12-16T08:54:34;95576.97;;;12.15;100.00
41222;BME280;26952;42.884;23.918;2022-12-16T08:57:17;95586.94;;;12.34;100.00
41222;BME280;26952;42.884;23.918;2022-12-16T09:00:03;95571.53;;;12.44;100.00
41222;BME280;26952;42.884;23.918;2022-12-16T09:02:53;95546.09;;;12.56;100.00
41222;BME280;26952;42.884;23.918;2022-12-16T09:05:37;95513.72;;;12.68;100.00
41222;BME280;26952;42.884;23.918;2022-12-16T09:08:21;95536.78;;;12.95;100.00
41222;BME280;26952;42.884;23.918;2022-12-16T09:11:05;95510.38;;;13.21;100.00
41222;BME280;26952;42.884;23.918;2022-12-16T09:13:49;95508.00;;;13.32;100.00
41222;BME280;26952;42.884;23.918;2022-12-16T09:16:33;95502.63;;;13.73;100.00
41222;BME280;26952;42.884;23.918;2022-12-16T09:19:17;95507.94;;;13.73;100.00
41222;BME280;26952;42.884;23.918;2022-12-16T09:22:01;95489.34;;;13.99;100.00
41222;BME280;26952;42.884;23.918;2022-12-16T09:24:44;95499.28;;;14.44;100.00
41222;BME280;26952;42.884;23.918;2022-12-16T09:27:28;95509.91;;;14.64;100.00
41222;BME280;26952;42.884;23.918;2022-12-16T09:30:12;95527.56;;;14.78;100.00
41222;BME280;26952;42.884;23.918;2022-12-16T09:32:56;95522.63;;;14.94;100.00
41222;BME280;26952;42.884;23.918;2022-12-16T09:35:40;95526.31;;;14.80;90.35
41222;BME280;26952;42.884;23.918;2022-12-16T09:38:24;95512.97;;;14.80;94.31
41222;BME280;26952;42.884;23.918;2022-12-16T09:44:19;95513.97;;;15.05;91.21
41222;BME280;26952;42.884;23.918;2022-12-16T09:47:16;95520.91;;;15.39;96.50
41222;BME280;26952;42.884;23.918;2022-12-16T09:50:04;95492.56;;;15.45;94.17
41222;BME280;26952;42.884;23.918;2022-12-16T09:52:59;95491.00;;;15.75;90.84
41222;BME280;26952;42.884;23.918;2022-12-16T09:55:45;95497.78;;;16.08;87.64
41222;BME280;26952;42.884;23.918;2022-12-16T09:58:37;95489.38;;;16.36;83.97
41222;BME280;26952;42.884;23.918;2022-12-16T10:01:23;95478.19;;;16.21;85.55
41222;BME280;26952;42.884;23.918;2022-12-16T10:04:08;95503.00;;;16.59;81.69
41222;BME280;26952;42.884;23.918;2022-12-16T10:06:57;95489.78;;;16.89;76.09
41222;BME280;26952;42.884;23.918;2022-12-16T10:09:51;95495.44;;;17.17;79.83
41222;BME280;26952;42.884;23.918;2022-12-16T10:13:08;95487.13;;;16.89;86.88
41222;BME280;26952;42.884;23.918;2022-12-16T10:19:52;95500.28;;;17.08;85.76
41222;BME280;26952;42.884;23.918;2022-12-16T10:26:02;95461.66;;;17.22;81.73
41222;BME280;26952;42.884;23.918;2022-12-16T10:28:55;95464.50;;;17.63;85.69
41222;BME280;26952;42.884;23.918;2022-12-16T10:31:42;95475.47;;;17.73;75.16
41222;BME280;26952;42.884;23.918;2022-12-16T10:34:28;95462.34;;;17.83;69.95
41222;BME280;26952;42.884;23.918;2022-12-16T10:37:35;95462.66;;;17.75;66.72
41222;BME280;26952;42.884;23.918;2022-12-16T10:40:24;95455.88;;;17.91;74.48
41222;BME280;26952;42.884;23.918;2022-12-16T10:43:14;95455.06;;;17.90;71.83
41222;BME280;26952;42.884;23.918;2022-12-16T10:45:59;95457.69;;;18.09;77.92
41222;BME280;26952;42.884;23.918;2022-12-16T10:48:44;95449.66;;;18.09;67.51
41222;BME280;26952;42.884;23.918;2022-12-16T10:51:28;95453.97;;;18.10;67.71
41222;BME280;26952;42.884;23.918;2022-12-16T10:57:22;95447.44;;;18.06;72.79
41222;BME280;26952;42.884;23.918;2022-12-16T11:00:14;95433.84;;;18.30;72.50
41222;BME280;26952;42.884;23.918;2022-12-16T11:03:35;95432.91;;;18.25;71.39
41222;BME280;26952;42.884;23.918;2022-12-16T11:12:19;95461.00;;;18.34;74.94
41222;BME280;26952;42.884;23.918;2022-12-16T11:18:07;95448.88;;;18.20;77.57
41222;BME280;26952;42.884;23.918;2022-12-16T11:24:17;95459.09;;;18.41;72.25
41222;BME280;26952;42.884;23.918;2022-12-16T11:27:03;95455.69;;;18.45;69.52
41222;BME280;26952;42.884;23.918;2022-12-16T11:29:55;95463.50;;;18.47;80.33
41222;BME280;26952;42.884;23.918;2022-12-16T11:32:51;95447.47;;;18.29;77.78
41222;BME280;26952;42.884;23.918;2022-12-16T11:35:41;95454.03;;;18.33;67.41
41222;BME280;26952;42.884;23.918;2022-12-16T11:38:31;95445.97;;;18.33;71.09
41222;BME280;26952;42.884;23.918;2022-12-16T11:41:24;95453.50;;;18.13;75.36
41222;BME280;26952;42.884;23.918;2022-12-16T11:44:16;95443.34;;;18.03;79.52
41222;BME280;26952;42.884;23.918;2022-12-16T11:47:01;95443.84;;;17.82;81.13
41222;BME280;26952;42.884;23.918;2022-12-16T11:49:47;95451.97;;;17.75;73.58
41222;BME280;26952;42.884;23.918;2022-12-16T11:52:33;95455.78;;;17.68;84.52
41222;BME280;26952;42.884;23.918;2022-12-16T11:55:26;95427.91;;;17.57;83.24
41222;BME280;26952;42.884;23.918;2022-12-16T11:58:18;95437.91;;;17.50;83.09
41222;BME280;26952;42.884;23.918;2022-12-16T12:03:59;95464.88;;;17.67;80.56
41222;BME280;26952;42.884;23.918;2022-12-16T12:16:22;95438.88;;;18.27;72.50
41222;BME280;26952;42.884;23.918;2022-12-16T12:19:18;95444.22;;;18.27;68.16
41222;BME280;26952;42.884;23.918;2022-12-16T12:22:10;95456.84;;;18.38;70.83
41222;BME280;26952;42.884;23.918;2022-12-16T12:25:09;95437.56;;;18.18;66.70
41222;BME280;26952;42.884;23.918;2022-12-16T12:37:21;95436.84;;;18.75;62.38
41222;BME280;26952;42.884;23.918;2022-12-16T12:40:18;95427.38;;;18.72;59.97
41222;BME280;26952;42.884;23.918;2022-12-16T12:43:22;95431.97;;;18.72;59.23
41222;BME280;26952;42.884;23.918;2022-12-16T12:46:21;95412.13;;;18.73;58.68
41222;BME280;26952;42.884;23.918;2022-12-16T12:55:09;95412.25;;;18.66;58.70
41222;BME280;26952;42.884;23.918;2022-12-16T12:57:58;95428.34;;;18.78;57.34
41222;BME280;26952;42.884;23.918;2022-12-16T13:00:47;95432.91;;;18.66;58.38
41222;BME280;26952;42.884;23.918;2022-12-16T13:03:41;95423.09;;;18.60;57.31
41222;BME280;26952;42.884;23.918;2022-12-16T13:06:27;95413.41;;;18.59;58.34
41222;BME280;26952;42.884;23.918;2022-12-16T13:10:09;95426.00;;;18.58;58.09
41222;BME280;26952;42.884;23.918;2022-12-16T13:16:02;95424.94;;;18.48;57.74
41222;BME280;26952;42.884;23.918;2022-12-16T13:18:47;95422.75;;;18.45;58.60
41222;BME280;26952;42.884;23.918;2022-12-16T13:24:35;95427.84;;;18.58;57.75
41222;BME280;26952;42.884;23.918;2022-12-16T13:27:20;95408.66;;;18.20;58.81
41222;BME280;26952;42.884;23.918;2022-12-16T13:32:57;95406.75;;;18.50;57.90
41222;BME280;26952;42.884;23.918;2022-12-16T13:36:02;95422.16;;;18.43;58.65
41222;BME280;26952;42.884;23.918;2022-12-16T13:38:54;95428.09;;;18.45;58.64
41222;BME280;26952;42.884;23.918;2022-12-16T13:50:36;95453.13;;;18.39;58.44
41222;BME280;26952;42.884;23.918;2022-12-16T13:53:23;95449.41;;;18.40;56.73
41222;BME280;26952;42.884;23.918;2022-12-16T13:56:11;95446.41;;;18.48;57.89
41222;BME280;26952;42.884;23.918;2022-12-16T13:59:00;95440.75;;;18.38;58.38
41222;BME280;26952;42.884;23.918;2022-12-16T14:01:55;95453.38;;;18.49;57.06
41222;BME280;26952;42.884;23.918;2022-12-16T14:07:31;95466.94;;;18.24;59.61
41222;BME280;26952;42.884;23.918;2022-12-16T14:10:24;95473.00;;;18.31;57.94
41222;BME280;26952;42.884;23.918;2022-12-16T14:19:32;95478.09;;;18.21;58.52
41222;BME280;26952;42.884;23.918;2022-12-16T14:25:41;95476.13;;;18.17;58.27
41222;BME280;26952;42.884;23.918;2022-12-16T14:28:38;95477.50;;;18.19;58.63
41222;BME280;26952;42.884;23.918;2022-12-16T14:31:36;95495.06;;;18.04;59.64
41222;BME280;26952;42.884;23.918;2022-12-16T14:34:30;95484.84;;;18.12;59.13
41222;BME280;26952;42.884;23.918;2022-12-16T14:37:19;95506.72;;;18.09;60.76
41222;BME280;26952;42.884;23.918;2022-12-16T14:40:18;95489.88;;;17.90;60.69
41222;BME280;26952;42.884;23.918;2022-12-16T14:43:02;95505.34;;;17.88;62.24
41222;BME280;26952;42.884;23.918;2022-12-16T14:45:48;95507.47;;;17.68;62.90
41222;BME280;26952;42.884;23.918;2022-12-16T14:48:35;95508.31;;;17.44;65.44
41222;BME280;26952;42.884;23.918;2022-12-16T14:57:07;95497.53;;;16.72;72.97
41222;BME280;26952;42.884;23.918;2022-12-16T15:00:00;95515.00;;;16.50;75.43
41222;BME280;26952;42.884;23.918;2022-12-16T15:02:46;95499.44;;;16.09;78.29
41222;BME280;26952;42.884;23.918;2022-12-16T15:05:33;95506.25;;;15.99;77.83
41222;BME280;26952;42.884;23.918;2022-12-16T15:08:19;95515.09;;;15.55;84.59
41222;BME280;26952;42.884;23.918;2022-12-16T15:11:05;95513.06;;;15.38;85.94
41222;BME280;26952;42.884;23.918;2022-12-16T15:13:53;95506.34;;;15.28;86.25
41222;BME280;26952;42.884;23.918;2022-12-16T15:16:39;95501.28;;;15.07;86.44
41222;BME280;26952;42.884;23.918;2022-12-16T15:19:25;95512.94;;;15.06;87.43
41222;BME280;26952;42.884;23.918;2022-12-16T15:22:15;95497.09;;;15.24;82.51
41222;BME280;26952;42.884;23.918;2022-12-16T15:25:00;95494.22;;;15.32;82.87
41222;BME280;26952;42.884;23.918;2022-12-16T15:27:52;95498.09;;;15.50;80.66
41222;BME280;26952;42.884;23.918;2022-12-16T15:30:45;95524.94;;;15.55;80.32
41222;BME280;26952;42.884;23.918;2022-12-16T15:33:35;95517.00;;;15.86;76.23
41222;BME280;26952;42.884;23.918;2022-12-16T15:36:31;95500.47;;;16.02;76.25
41222;BME280;26952;42.884;23.918;2022-12-16T15:39:24;95516.38;;;16.21;72.56
41222;BME280;26952;42.884;23.918;2022-12-16T15:45:05;95524.88;;;16.43;72.89
41222;BME280;26952;42.884;23.918;2022-12-16T15:48:30;95515.25;;;16.42;73.24
41222;BME280;26952;42.884;23.918;2022-12-16T15:51:29;95511.94;;;16.40;72.65
41222;BME280;26952;42.884;23.918;2022-12-16T15:56:59;95494.56;;;16.24;72.76
41222;BME280;26952;42.884;23.918;2022-12-16T15:59:57;95497.91;;;16.51;70.40
41222;BME280;26952;42.884;23.918;2022-12-16T16:02:47;95491.75;;;16.50;70.62
41222;BME280;26952;42.884;23.918;2022-12-16T16:05:32;95475.84;;;16.31;72.00
41222;BME280;26952;42.884;23.918;2022-12-16T16:08:18;95495.81;;;16.59;69.89
41222;BME280;26952;42.884;23.918;2022-12-16T16:11:02;95501.66;;;16.68;69.85
41222;BME280;26952;42.884;23.918;2022-12-16T16:13:46;95496.28;;;16.75;67.11